Station Historical Data
Daily Summary for October 28, 2017 Units:  Metric    English   Both
« Previous Day
Next Day »
Daily Weekly Monthly Yearly Custom
  High: Low: Average:
Temperature: 16.7 °C 5 °C 12 °C
Dew Point: 14 °C 3.3 °C 9.1 °C
Humidity: 93% 56% 84%
Wind Speed: 7.4km/h 0km/h 0.8km/h
Wind Gust: 8km/h - -
Wind- - WSW
Pressure: 1015.5 hPa 1008.4 hPa -
Precipitation: 29.72 mm    
Historical Graphs
 
 
Tabular Data for October 28, 2017
Time Temperature Dew Point Pressure Wind Wind Speed Wind Gust Humidity Rainfall Rate (Hourly) solar Conditions
00:03 16.5 °C 8.4 °C 1015.5 hPa NNW 1.9 km/h 1.9 km/h 59% 0 mm WeatherDisplay:10.37 W/m2 BKN
00:08 16.5 °C 8.4 °C 1015.1 hPa NW 1.6 km/h   59% 0 mm WeatherDisplay:10.37 W/m2 BKN
00:14 16.6 °C 8.3 °C 1015.1 hPa WNW 1.9 km/h 1.9 km/h 58% 0 mm WeatherDisplay:10.37 W/m2 BKN
00:19 16.6 °C 8.1 °C 1015.1 hPa NE 1.9 km/h   57% 0 mm WeatherDisplay:10.37 W/m2 BKN
00:24 16.7 °C 8.3 °C 1015.1 hPa Calm     58% 0 mm WeatherDisplay:10.37 W/m2 BKN
00:29 16.7 °C 8.3 °C 1014.8 hPa Calm     58% 0 mm WeatherDisplay:10.37 W/m2 BKN
00:34 16.7 °C 8.1 °C 1014.8 hPa NW 1.9 km/h 1.9 km/h 57% 0 mm WeatherDisplay:10.37 W/m2 BKN
00:39 16.7 °C 7.9 °C 1014.8 hPa North 1.9 km/h 1.9 km/h 56% 0 mm WeatherDisplay:10.37 W/m2 BKN
00:44 16.7 °C 8.2 °C 1014.4 hPa Calm     57% 0 mm WeatherDisplay:10.37 W/m2 BKN
00:49 16.7 °C 8.1 °C 1014.4 hPa NW 1.9 km/h   57% 0 mm WeatherDisplay:10.37 W/m2 BKN
00:54 16.7 °C 8.3 °C 1014.4 hPa Calm     58% 0 mm WeatherDisplay:10.37 W/m2 BKN
00:59 16.6 °C 8.1 °C 1014.4 hPa Calm     57% 0 mm WeatherDisplay:10.37 W/m2 BKN
01:05 16.6 °C 8 °C 1014.4 hPa Calm     57% 0 mm WeatherDisplay:10.37 W/m2 OVC
01:10 16.5 °C 8.2 °C 1014.4 hPa Calm     58% 0 mm WeatherDisplay:10.37 W/m2 OVC
01:15 16.4 °C 8.2 °C 1014.4 hPa Calm     58% 0 mm WeatherDisplay:10.37 W/m2 OVC
01:20 16.4 °C 8.2 °C 1014.1 hPa Calm   1.6 km/h 58% 0 mm WeatherDisplay:10.37 W/m2 OVC
01:25 16.4 °C 8.4 °C 1014.1 hPa Calm     59% 0 mm WeatherDisplay:10.37 W/m2 OVC
01:30 16.4 °C 8.1 °C 1014.1 hPa NNW 1.9 km/h 1.9 km/h 58% 0 mm WeatherDisplay:10.37 W/m2 OVC
01:35 16.4 °C 8.2 °C 1014.1 hPa Calm   1.6 km/h 58% 0 mm WeatherDisplay:10.37 W/m2 OVC
01:40 16.4 °C 8.1 °C 1014.1 hPa Calm   1.6 km/h 58% 0 mm WeatherDisplay:10.37 W/m2 OVC
01:45 16.4 °C 8.1 °C 1014.1 hPa Calm   1.6 km/h 58% 0 mm WeatherDisplay:10.37 W/m2 OVC
01:50 16.3 °C 8.1 °C 1014.1 hPa Calm   1.6 km/h 58% 0 mm WeatherDisplay:10.37 W/m2 OVC
01:55 16.3 °C 8.1 °C 1014.1 hPa Calm   1.6 km/h 58% 0 mm WeatherDisplay:10.37 W/m2 OVC
02:00 16.3 °C 8.3 °C 1014.1 hPa Calm   1.6 km/h 59% 0 mm WeatherDisplay:10.37 W/m2 OVC
02:05 16.3 °C 8 °C 1013.8 hPa Calm   1.6 km/h 58% 0 mm WeatherDisplay:10.37 W/m2 BKN
02:10 16.3 °C 8 °C 1013.8 hPa Calm   1.6 km/h 58% 0 mm WeatherDisplay:10.37 W/m2 BKN
02:15 16.3 °C 7.8 °C 1014.1 hPa Calm   0.2 km/h 57% 0 mm WeatherDisplay:10.37 W/m2 BKN
02:20 16.3 °C 8.1 °C 1013.8 hPa Calm   1.6 km/h 58% 0 mm WeatherDisplay:10.37 W/m2 BKN
02:25 16.3 °C 8 °C 1013.8 hPa Calm   1.6 km/h 58% 0 mm WeatherDisplay:10.37 W/m2 BKN
02:30 16.3 °C 8 °C 1013.8 hPa Calm   1.6 km/h 58% 0 mm WeatherDisplay:10.37 W/m2 BKN
02:35 16.3 °C 8 °C 1013.8 hPa Calm   1.6 km/h 58% 0 mm WeatherDisplay:10.37 W/m2 BKN
02:40 16.2 °C 8.2 °C 1013.8 hPa Calm   1.6 km/h 59% 0 mm WeatherDisplay:10.37 W/m2 BKN
02:45 16.2 °C 7.9 °C 1013.8 hPa Calm   1.6 km/h 58% 0 mm WeatherDisplay:10.37 W/m2 BKN
02:50 16.2 °C 8.2 °C 1013.8 hPa Calm     59% 0 mm WeatherDisplay:10.37 W/m2 BKN
02:55 16.2 °C 8.4 °C 1013.8 hPa Calm   1.6 km/h 60% 0 mm WeatherDisplay:10.37 W/m2 BKN
03:00 16.1 °C 8.6 °C 1013.8 hPa Calm   1.6 km/h 61% 0 mm WeatherDisplay:10.37 W/m2 BKN
03:05 16 °C 8.5 °C 1013.8 hPa Calm   1.6 km/h 61% 0 mm WeatherDisplay:10.37 W/m2 OVC
03:10 15.9 °C 8.4 °C 1013.4 hPa Calm   1.6 km/h 61% 0 mm WeatherDisplay:10.37 W/m2 OVC
03:15 15.9 °C 8.4 °C 1013.8 hPa Calm     61% 0 mm WeatherDisplay:10.37 W/m2 OVC
03:20 15.8 °C 8.6 °C 1013.4 hPa Calm   1.6 km/h 62% 0 mm WeatherDisplay:10.37 W/m2 OVC
03:25 15.8 °C 8.6 °C 1013.4 hPa Calm     62% 0 mm WeatherDisplay:10.37 W/m2 OVC
03:30 15.8 °C 8.5 °C 1013.4 hPa Calm   1.6 km/h 62% 0 mm WeatherDisplay:10.37 W/m2 OVC
03:35 15.7 °C 8.7 °C 1013.4 hPa Calm     63% 0 mm WeatherDisplay:10.37 W/m2 OVC
03:40 15.6 °C 8.6 °C 1013.4 hPa Calm   1.6 km/h 63% 0 mm WeatherDisplay:10.37 W/m2 OVC
03:45 15.6 °C 8.8 °C 1013.4 hPa Calm   1.6 km/h 64% 0 mm WeatherDisplay:10.37 W/m2 OVC
03:55 15.5 °C 8.7 °C 1013.1 hPa Calm   1.6 km/h 64% 0 mm WeatherDisplay:10.37 W/m2 OVC
04:00 15.4 °C 8.9 °C 1013.1 hPa Calm   1.6 km/h 65% 0 mm WeatherDisplay:10.37 W/m2 OVC
04:05 15.3 °C 8.8 °C 1013.4 hPa Calm     65% 0 mm WeatherDisplay:10.37 W/m2 OVC
04:10 15.3 °C 8.9 °C 1013.4 hPa Calm   1.6 km/h 66% 0 mm WeatherDisplay:10.37 W/m2 OVC
04:15 15.3 °C 8.7 °C 1013.1 hPa Calm   1.6 km/h 65% 0 mm WeatherDisplay:10.37 W/m2 OVC
04:20 15.3 °C 9.2 °C 1012.8 hPa Calm   1.6 km/h 67% 0 mm WeatherDisplay:10.37 W/m2 OVC
04:25 15.2 °C 8.9 °C 1012.8 hPa Calm     66% 0 mm WeatherDisplay:10.37 W/m2 OVC
04:30 15.2 °C 8.9 °C 1013.1 hPa Calm     66% 0 mm WeatherDisplay:10.37 W/m2 OVC
04:35 15.2 °C 8.9 °C 1013.1 hPa Calm     66% 0 mm WeatherDisplay:10.37 W/m2 OVC
04:40 15.2 °C 8.9 °C 1013.1 hPa NNW 1.9 km/h   66% 0 mm WeatherDisplay:10.37 W/m2 OVC
04:45 15.2 °C 8.8 °C 1013.1 hPa Calm     66% 0 mm WeatherDisplay:10.37 W/m2 -DZ
04:50 15.2 °C 9.1 °C 1012.8 hPa NNW 1.9 km/h 1.9 km/h 67% 0 mm WeatherDisplay:10.37 W/m2 OVC
04:55 15.1 °C 9.2 °C 1012.8 hPa Calm     68% 0 mm WeatherDisplay:10.37 W/m2 OVC
05:00 15 °C 9.6 °C 1012.8 hPa Calm     70% 0 mm WeatherDisplay:10.37 W/m2 OVC
05:03 14.8 °C 9.8 °C 1012.8 hPa Calm     72% 0 mm WeatherDisplay:10.37 W/m2 -RA
05:08 14.6 °C 9.8 °C 1012.8 hPa Calm     73% 0 mm WeatherDisplay:10.37 W/m2 -RA
05:13 14.4 °C 9.7 °C 1012.8 hPa Calm     73% 0 mm WeatherDisplay:10.37 W/m2 -RA
05:19 14.3 °C 10.2 °C 1012.8 hPa Calm     76% 0 mm WeatherDisplay:10.37 W/m2 -RA
05:24 14.2 °C 10.2 °C 1012.8 hPa Calm     77% 0 mm WeatherDisplay:10.37 W/m2 -RA
05:29 13.9 °C 10.5 °C 1012.8 hPa Calm     80% 0 mm WeatherDisplay:10.37 W/m2 -RA
05:34 13.7 °C 10.4 °C 1012.8 hPa NNW 1.9 km/h   81% 0 mm WeatherDisplay:10.37 W/m2 BKN
05:39 13.6 °C 10.3 °C 1012.8 hPa Calm     81% 0 mm WeatherDisplay:10.37 W/m2 BKN
05:44 13.5 °C 10.3 °C 1012.8 hPa Calm     81% 0 mm WeatherDisplay:10.37 W/m2 BKN
05:49 13.5 °C 10.3 °C 1012.8 hPa Calm     81% 0 mm WeatherDisplay:10.37 W/m2 BKN
05:54 13.5 °C 10.5 °C 1012.8 hPa Calm     82% 0 mm WeatherDisplay:10.37 W/m2 BKN
05:59 13.5 °C 10.5 °C 1012.8 hPa Calm     82% 0 mm WeatherDisplay:10.37 W/m2 BKN
06:05 13.5 °C 10.5 °C 1012.8 hPa Calm   1.6 km/h 82% 0 mm WeatherDisplay:10.37 W/m2 BKN
06:15 13.5 °C 10.5 °C 1012.8 hPa Calm     82% 0 mm WeatherDisplay:10.37 W/m2 BKN
06:20 13.5 °C 10.3 °C 1012.8 hPa Calm     81% 0 mm WeatherDisplay:10.37 W/m2 BKN
06:30 13.5 °C 10.5 °C 1013.1 hPa Calm     82% 0 mm WeatherDisplay:10.37 W/m2 BKN
06:35 13.5 °C 10.5 °C 1013.1 hPa Calm     82% 0 mm WeatherDisplay:10.37 W/m2 BKN
06:40 13.4 °C 10.4 °C 1013.1 hPa Calm     82% 0 mm WeatherDisplay:10.37 W/m2 BKN
06:45 13.4 °C 10.6 °C 1012.8 hPa Calm     83% 0 mm WeatherDisplay:10.37 W/m2 BKN
06:50 13.4 °C 10.8 °C 1012.8 hPa Calm     84% 0 mm WeatherDisplay:10.37 W/m2 BKN
06:55 13.4 °C 10.6 °C 1012.8 hPa Calm     83% 0 mm WeatherDisplay:10.37 W/m2 BKN
07:00 13.4 °C 10.6 °C 1013.1 hPa Calm     83% 0 mm WeatherDisplay:10.37 W/m2 BKN
07:05 13.4 °C 10.6 °C 1012.8 hPa Calm     83% 0 mm WeatherDisplay:10.37 W/m2 OVC
07:10 13.4 °C 10.6 °C 1012.8 hPa Calm     83% 0 mm WeatherDisplay:10.37 W/m2 OVC
07:15 13.5 °C 10.7 °C 1012.8 hPa Calm     83% 0 mm WeatherDisplay:10.37 W/m2 OVC
07:20 13.5 °C 10.7 °C 1013.1 hPa Calm     83% 0 mm WeatherDisplay:10.37 W/m2 OVC
07:25 13.5 °C 10.7 °C 1012.8 hPa Calm     83% 0 mm WeatherDisplay:10.37 W/m2 OVC
07:30 13.5 °C 10.8 °C 1012.8 hPa Calm     84% 0 mm WeatherDisplay:10.37 W/m2 OVC
07:35 13.4 °C 10.6 °C 1012.8 hPa Calm     83% 0 mm WeatherDisplay:10.37 W/m2 OVC
07:40 13.5 °C 10.7 °C 1012.8 hPa Calm     83% 0 mm WeatherDisplay:10.37 W/m2 OVC
07:45 13.5 °C 10.7 °C 1012.8 hPa Calm     83% 0 mm WeatherDisplay:10.37 W/m2 OVC
07:50 13.4 °C 10.6 °C 1012.8 hPa Calm   1.6 km/h 83% 0 mm WeatherDisplay:10.37 W/m2 OVC
07:55 13.5 °C 10.8 °C 1012.8 hPa Calm     84% 0 mm WeatherDisplay:10.37 W/m2 OVC
08:00 13.5 °C 10.7 °C 1013.1 hPa Calm   1.6 km/h 83% 0 mm WeatherDisplay:10.37 W/m2 OVC
08:05 13.5 °C 10.8 °C 1012.8 hPa Calm     84% 0 mm WeatherDisplay:10.37 W/m2 OVC
08:10 13.4 °C 10.9 °C 1012.8 hPa Calm     85% 0 mm WeatherDisplay:10.37 W/m2 OVC
08:15 13.3 °C 11.1 °C 1012.8 hPa Calm     86% 0 mm WeatherDisplay:10.37 W/m2 OVC
08:20 13.3 °C 10.9 °C 1013.1 hPa Calm     86% 0 mm WeatherDisplay:10.37 W/m2 OVC
08:25 13.2 °C 11 °C 1012.8 hPa Calm     87% 0 mm WeatherDisplay:10.37 W/m2 OVC
08:30 13.1 °C 10.9 °C 1012.8 hPa Calm     87% 0 mm WeatherDisplay:10.37 W/m2 OVC
08:35 13.1 °C 11.1 °C 1012.8 hPa Calm     88% 0 mm WeatherDisplay:10.37 W/m2 OVC
08:40 13 °C 11.2 °C 1012.8 hPa Calm     89% 0 mm WeatherDisplay:10.37 W/m2 OVC
08:45 13 °C 11.2 °C 1012.4 hPa Calm     89% 0 mm WeatherDisplay:10.37 W/m2 OVC
08:50 13 °C 11.4 °C 1012.4 hPa Calm     90% 0 mm WeatherDisplay:10.37 W/m2 OVC
08:55 13 °C 11.4 °C 1012.4 hPa Calm     90% 0 mm WeatherDisplay:10.37 W/m2 OVC
09:00 13 °C 11.4 °C 1012.4 hPa Calm     90% 0 mm WeatherDisplay:10.37 W/m2 OVC
09:05 13 °C 11.4 °C 1012.4 hPa Calm     90% 0 mm WeatherDisplay:10.37 W/m2 -RA
09:10 13 °C 11.4 °C 1012.4 hPa Calm     90% 0 mm WeatherDisplay:10.37 W/m2 -RA
09:15 13 °C 11.4 °C 1012.4 hPa Calm     90% 0 mm WeatherDisplay:10.37 W/m2 -RA
09:20 13.1 °C 11.4 °C 1012.4 hPa Calm     90% 0 mm WeatherDisplay:10.37 W/m2 -RA
09:25 13.1 °C 11.4 °C 1012.4 hPa Calm     90% 0 mm WeatherDisplay:10.37 W/m2 -RA
09:30 13.1 °C 11.5 °C 1012.4 hPa Calm     90% 0 mm WeatherDisplay:10.37 W/m2 -RA
09:35 13.1 °C 11.5 °C 1012.4 hPa Calm     90% 0.25 mm WeatherDisplay:10.37 W/m2 -RA
09:40 13.1 °C 11.5 °C 1012.4 hPa Calm     90% 0.25 mm WeatherDisplay:10.37 W/m2 -RA
09:45 13.2 °C 11.7 °C 1012.8 hPa Calm     91% 0.25 mm WeatherDisplay:10.37 W/m2 -RA
09:50 13.2 °C 11.7 °C 1012.4 hPa Calm     91% 0.25 mm WeatherDisplay:10.37 W/m2 -RA
09:55 13.2 °C 11.8 °C 1012.4 hPa Calm     91% 0.25 mm WeatherDisplay:10.37 W/m2 -RA
10:00 13.2 °C 11.8 °C 1012.4 hPa Calm     91% 0.25 mm WeatherDisplay:10.37 W/m2 -RA
10:05 13.3 °C 11.8 °C 1012.4 hPa Calm     91% 0.25 mm WeatherDisplay:10.37 W/m2 -RA
10:10 13.3 °C 11.8 °C 1012.4 hPa Calm     91% 0.51 mm WeatherDisplay:10.37 W/m2 -RA
10:15 13.3 °C 11.9 °C 1012.4 hPa Calm     91% 0.51 mm WeatherDisplay:10.37 W/m2 -RA
10:21 13.4 °C 12.1 °C 1012.1 hPa Calm     92% 0.51 mm WeatherDisplay:10.37 W/m2 -RA
10:26 13.4 °C 12 °C 1012.1 hPa Calm     91% 0.51 mm WeatherDisplay:10.37 W/m2 -RA
10:31 13.5 °C 12.2 °C 1012.1 hPa Calm     92% 0.51 mm WeatherDisplay:10.37 W/m2 OVC
10:36 13.6 °C 12.3 °C 1012.1 hPa Calm     92% 0.25 mm WeatherDisplay:10.37 W/m2 OVC
10:41 13.6 °C 12.3 °C 1011.7 hPa North 1.9 km/h   92% 0.25 mm WeatherDisplay:10.37 W/m2 OVC
10:46 13.7 °C 12.4 °C 1011.7 hPa Calm     92% 0.25 mm WeatherDisplay:10.37 W/m2 OVC
10:51 13.7 °C 12.4 °C 1011.7 hPa Calm     92% 0.25 mm WeatherDisplay:10.37 W/m2 OVC
10:56 13.7 °C 12.4 °C 1011.7 hPa Calm     92% 0.25 mm WeatherDisplay:10.37 W/m2 OVC
11:02 13.7 °C 12.4 °C 1011.7 hPa Calm     92% 0.25 mm WeatherDisplay:10.37 W/m2 -RA
11:07 13.8 °C 12.5 °C 1011.4 hPa Calm     92% 0.25 mm WeatherDisplay:10.37 W/m2 -RA
11:12 13.9 °C 12.6 °C 1011.4 hPa North 1.9 km/h 1.9 km/h 92% 0 mm WeatherDisplay:10.37 W/m2 -RA
11:17 14 °C 12.7 °C 1011.4 hPa Calm     92% 0 mm WeatherDisplay:10.37 W/m2 -RA
11:22 14.1 °C 12.8 °C 1011.7 hPa Calm     92% 0 mm WeatherDisplay:10.37 W/m2 -RA
11:27 14.2 °C 12.9 °C 1011.7 hPa Calm     92% 0 mm WeatherDisplay:10.37 W/m2 -RA
11:32 14.2 °C 12.9 °C 1011.4 hPa Calm     92% 0 mm WeatherDisplay:10.37 W/m2 -RA
11:37 14.2 °C 12.8 °C 1011.4 hPa Calm     91% 0 mm WeatherDisplay:10.37 W/m2 -RA
11:42 14.3 °C 13 °C 1011.4 hPa Calm     92% 0 mm WeatherDisplay:10.37 W/m2 -RA
11:48 14.3 °C 12.9 °C 1011.4 hPa Calm     91% 0 mm WeatherDisplay:10.37 W/m2 -RA
11:53 14.3 °C 13.1 °C 1011.4 hPa Calm     92% 0.25 mm WeatherDisplay:10.37 W/m2 -RA
11:58 14.4 °C 13.1 °C 1011.1 hPa Calm     92% 0.25 mm WeatherDisplay:10.37 W/m2 -RA
12:03 14.4 °C 13.1 °C 1011.1 hPa Calm     92% 0.25 mm WeatherDisplay:10.37 W/m2 -RA
12:08 14.4 °C 13.2 °C 1011.1 hPa Calm     92% 0.25 mm WeatherDisplay:10.37 W/m2 -RA
12:13 14.6 °C 13.3 °C 1011.1 hPa Calm     92% 0.25 mm WeatherDisplay:10.37 W/m2 -RA
12:18 14.7 °C 13.4 °C 1010.7 hPa Calm     92% 0.25 mm WeatherDisplay:10.37 W/m2 -RA
12:23 14.7 °C 13.4 °C 1010.7 hPa Calm     92% 0.25 mm WeatherDisplay:10.37 W/m2 -RA
12:28 14.7 °C 13.4 °C 1010.7 hPa Calm     92% 0.25 mm WeatherDisplay:10.37 W/m2 -RA
12:33 14.8 °C 13.5 °C 1010.7 hPa Calm     92% 0.25 mm WeatherDisplay:10.37 W/m2 -RA
12:38 14.8 °C 13.6 °C 1010.7 hPa Calm     92% 0.25 mm WeatherDisplay:10.37 W/m2 -RA
12:40 14.9 °C 13.6 °C 1010.7 hPa Calm     92% 0.25 mm WeatherDisplay:10.37 W/m2 -RA
12:45 14.9 °C 13.7 °C 1010.7 hPa Calm     92% 0.25 mm WeatherDisplay:10.37 W/m2 -RA
12:47 14.9 °C 13.7 °C 1010.7 hPa Calm     92% 0.25 mm WeatherDisplay:10.37 W/m2 -RA
12:52 15 °C 13.7 °C 1010.7 hPa Calm     92% 0 mm WeatherDisplay:10.37 W/m2 -RA
12:57 15 °C 13.7 °C 1010.4 hPa Calm     92% 0 mm WeatherDisplay:10.37 W/m2 -RA
13:02 15.1 °C 13.8 °C 1010.4 hPa Calm     92% 0 mm WeatherDisplay:10.37 W/m2 -RA
13:07 15.2 °C 13.9 °C 1010.4 hPa Calm     92% 0 mm WeatherDisplay:10.37 W/m2 -RA
13:17 15.2 °C 13.9 °C 1010 hPa Calm     92% 0 mm WeatherDisplay:10.37 W/m2 -RA
13:23 15.2 °C 13.9 °C 1010 hPa Calm     92% 0 mm WeatherDisplay:10.37 W/m2 -RA
13:28 15.2 °C 13.9 °C 1009.7 hPa Calm     92% 0.25 mm WeatherDisplay:10.37 W/m2 -RA
13:33 15.2 °C 13.9 °C 1009.7 hPa Calm     92% 0.25 mm WeatherDisplay:10.37 W/m2 -RA
13:38 15.3 °C 14 °C 1010 hPa ENE 1.9 km/h 1.9 km/h 92% 0.25 mm WeatherDisplay:10.37 W/m2 -RA
13:43 15.3 °C 14 °C 1009.7 hPa Calm     92% 0.51 mm WeatherDisplay:10.37 W/m2 -RA
13:48 15.1 °C 13.8 °C 1009.7 hPa NNW 1.9 km/h   92% 0.51 mm WeatherDisplay:10.37 W/m2 -RA
13:53 14.6 °C 13 °C 1009.7 hPa SW 5.6 km/h 5.6 km/h 90% 0.76 mm WeatherDisplay:10.37 W/m2 -RA
13:58 14.2 °C 12.6 °C 1009.7 hPa SW 1.9 km/h   90% 1.02 mm WeatherDisplay:10.37 W/m2 -RA
14:03 13.8 °C 12.2 °C 1009.7 hPa West 5.6 km/h 5.6 km/h 90% 1.27 mm WeatherDisplay:10.37 W/m2 -RA
14:08 13.4 °C 11.8 °C 1009.7 hPa WNW 1.6 km/h   90% 1.52 mm WeatherDisplay:10.37 W/m2 -RA
14:14 13.1 °C 11.5 °C 1009.7 hPa South 1.9 km/h   90% 1.52 mm WeatherDisplay:10.37 W/m2 -RA
14:19 12.9 °C 11.3 °C 1009.7 hPa South 1.9 km/h   90% 1.52 mm WeatherDisplay:10.37 W/m2 -RA
14:24 12.8 °C 11.2 °C 1009.4 hPa East 1.9 km/h 1.9 km/h 90% 1.78 mm WeatherDisplay:10.37 W/m2 -RA
14:29 12.7 °C 11.2 °C 1009.4 hPa Calm     91% 1.52 mm WeatherDisplay:10.37 W/m2 -RA
14:34 12.5 °C 11.1 °C 1009.4 hPa West 1.9 km/h   91% 1.52 mm WeatherDisplay:10.37 W/m2 -RA
14:39 12.4 °C 10.9 °C 1009.4 hPa North 1.9 km/h   91% 1.27 mm WeatherDisplay:10.37 W/m2 -RA
14:44 12.3 °C 10.9 °C 1009.4 hPa West 1.9 km/h 1.9 km/h 91% 1.27 mm WeatherDisplay:10.37 W/m2 -RA
14:49 12.2 °C 10.8 °C 1009.4 hPa Calm     91% 1.27 mm WeatherDisplay:10.37 W/m2 -RA
14:54 12.2 °C 10.7 °C 1009.4 hPa WNW 1.9 km/h 1.9 km/h 91% 0.76 mm WeatherDisplay:10.37 W/m2 -RA
14:59 12.1 °C 10.7 °C 1009 hPa West 1.9 km/h   91% 0.76 mm WeatherDisplay:10.37 W/m2 -RA
15:04 12.1 °C 10.8 °C 1009 hPa Calm     92% 0.51 mm WeatherDisplay:10.37 W/m2 -RA
15:09 12.1 °C 10.8 °C 1009 hPa West 1.9 km/h   92% 0.25 mm WeatherDisplay:10.37 W/m2 -RA
15:14 12 °C 10.7 °C 1009 hPa Calm     92% 0.25 mm WeatherDisplay:10.37 W/m2 -RA
15:19 12 °C 10.7 °C 1009 hPa West 1.9 km/h 1.9 km/h 92% 0.25 mm WeatherDisplay:10.37 W/m2 -RA
15:25 12.1 °C 10.8 °C 1009 hPa Calm     92% 0 mm WeatherDisplay:10.37 W/m2 -RA
15:30 12 °C 10.7 °C 1009.4 hPa West 1.9 km/h 1.9 km/h 92% 0 mm WeatherDisplay:10.37 W/m2 -RA
15:35 12 °C 10.7 °C 1009.4 hPa Calm   1.6 km/h 92% 0 mm WeatherDisplay:10.37 W/m2 -RA
15:40 11.9 °C 10.6 °C 1009.4 hPa Calm   3.2 km/h 92% 0 mm WeatherDisplay:10.37 W/m2 -RA
15:45 11.7 °C 10.4 °C 1009 hPa Calm   3.2 km/h 92% 0 mm WeatherDisplay:10.37 W/m2 -RA
15:50 11.6 °C 10.1 °C 1009 hPa WNW 1.9 km/h   91% 0 mm WeatherDisplay:10.37 W/m2 -RA
15:55 11.4 °C 10 °C 1009 hPa West 1.6 km/h   91% 0 mm WeatherDisplay:10.37 W/m2 -RA
16:00 11.3 °C 10.1 °C 1008.7 hPa Calm   1.6 km/h 92% 0 mm WeatherDisplay:10.37 W/m2 -RA
16:05 11.3 °C 10 °C 1009 hPa Calm   1.6 km/h 92% 0 mm WeatherDisplay:10.37 W/m2 -RA
16:10 11.2 °C 9.9 °C 1008.7 hPa Calm   3.2 km/h 92% 0.25 mm WeatherDisplay:10.37 W/m2 -RA
16:15 11 °C 9.7 °C 1009 hPa Calm   1.6 km/h 92% 0.25 mm WeatherDisplay:10.37 W/m2 -RA
16:20 10.9 °C 9.7 °C 1009 hPa Calm   1.6 km/h 92% 2.79 mm WeatherDisplay:10.37 W/m2 -RA
16:25 10.8 °C 9.6 °C 1009.4 hPa Calm   3.2 km/h 92% 0.51 mm WeatherDisplay:10.37 W/m2 +RA
16:30 10.7 °C 9.4 °C 1009.4 hPa Calm   3.2 km/h 92% 0.25 mm WeatherDisplay:10.37 W/m2 +RA
16:35 10.6 °C 9.3 °C 1009 hPa Calm   3.2 km/h 92% 0.25 mm WeatherDisplay:10.37 W/m2 +RA
16:40 10.4 °C 9.2 °C 1009 hPa Calm   1.6 km/h 92% 0.25 mm WeatherDisplay:10.37 W/m2 +RA
16:45 10.3 °C 9.1 °C 1009 hPa Calm   1.6 km/h 92% 0.25 mm WeatherDisplay:10.37 W/m2 +RA
16:50 10.2 °C 8.9 °C 1009 hPa Calm   3.2 km/h 92% 2.03 mm WeatherDisplay:10.37 W/m2 +RA
16:55 10.2 °C 8.9 °C 1009 hPa Calm   1.6 km/h 92% 0 mm WeatherDisplay:10.37 W/m2 RA
17:00 10.1 °C 8.8 °C 1008.7 hPa Calm   1.6 km/h 92% 0 mm WeatherDisplay:10.37 W/m2 RA
17:05 10 °C 8.8 °C 1009 hPa Calm   1.6 km/h 92% 1.78 mm WeatherDisplay:10.37 W/m2 RA
17:10 9.9 °C 8.7 °C 1009 hPa WNW 1.9 km/h 1.9 km/h 92% 17.53 mm WeatherDisplay:10.37 W/m2 RA
17:15 9.9 °C 8.8 °C 1009.4 hPa Calm   1.6 km/h 93% 1.27 mm WeatherDisplay:10.37 W/m2 RA
17:20 9.9 °C 8.8 °C 1009.4 hPa Calm   1.6 km/h 93% 0.25 mm WeatherDisplay:10.37 W/m2 RA
17:25 9.8 °C 8.5 °C 1009.7 hPa WNW 1.6 km/h 1.6 km/h 92% 0 mm WeatherDisplay:10.37 W/m2 RA
17:30 9.6 °C 8.3 °C 1010 hPa Calm   1.6 km/h 92% 0.25 mm WeatherDisplay:10.37 W/m2 RA
17:35 9.4 °C 8.2 °C 1009 hPa Calm   4.8 km/h 92% 1.27 mm WeatherDisplay:10.37 W/m2 RA
17:40 9.3 °C 8.1 °C 1008.4 hPa Calm   1.6 km/h 92% 0 mm WeatherDisplay:10.37 W/m2 OVC
17:45 9.2 °C 8 °C 1009 hPa Calm   3.2 km/h 92% 0.51 mm WeatherDisplay:10.37 W/m2 OVC
17:50 9.2 °C 7.9 °C 1009.4 hPa Calm   3.2 km/h 92% 0 mm WeatherDisplay:10.37 W/m2 OVC
17:55 9.1 °C 7.9 °C 1009.4 hPa Calm   4.8 km/h 92% 0 mm WeatherDisplay:10.37 W/m2 OVC
18:00 9 °C 7.8 °C 1009.4 hPa SE 3.7 km/h 3.7 km/h 92% 5.33 mm WeatherDisplay:10.37 W/m2 OVC
18:05 8.9 °C 7.7 °C 1009 hPa Calm   4.8 km/h 92% 0 mm WeatherDisplay:10.37 W/m2 -RA
18:10 8.7 °C 7.5 °C 1009.4 hPa SSE 1.6 km/h 4.8 km/h 92% 0.25 mm WeatherDisplay:10.37 W/m2 -RA
18:15 8.6 °C 7.3 °C 1009 hPa Calm   4.8 km/h 92% 0 mm WeatherDisplay:10.37 W/m2 -RA
18:20 8.4 °C 7.2 °C 1009.4 hPa West 1.6 km/h 4.8 km/h 92% 0 mm WeatherDisplay:10.37 W/m2 -RA
18:25 8.3 °C 7.1 °C 1009.4 hPa WNW 3.7 km/h 3.7 km/h 92% 2.54 mm WeatherDisplay:10.37 W/m2 -RA
18:30 8.2 °C 7 °C 1009 hPa Calm   3.2 km/h 92% 0 mm WeatherDisplay:10.37 W/m2 -RA
18:35 8.2 °C 7 °C 1009.4 hPa Calm   3.2 km/h 92% 0 mm WeatherDisplay:10.37 W/m2 -RA
18:40 8.2 °C 6.9 °C 1009.4 hPa Calm   3.2 km/h 92% 0 mm WeatherDisplay:10.37 W/m2 -RA
18:45 8.2 °C 6.9 °C 1009.4 hPa Calm   3.2 km/h 92% 0 mm WeatherDisplay:10.37 W/m2 -RA
18:50 8.2 °C 6.9 °C 1009.7 hPa Calm   1.6 km/h 92% 0 mm WeatherDisplay:10.37 W/m2 OVC
18:55 8.1 °C 6.9 °C 1009.7 hPa Calm   3.2 km/h 92% 0.51 mm WeatherDisplay:10.37 W/m2 RA
19:00 8.1 °C 6.8 °C 1009.7 hPa Calm   3.2 km/h 92% 0.25 mm WeatherDisplay:10.37 W/m2 RA
19:05 8 °C 6.8 °C 1009.4 hPa WNW 1.9 km/h 1.9 km/h 92% 1.27 mm WeatherDisplay:10.37 W/m2 -RA
19:10 7.9 °C 6.7 °C 1009.4 hPa SW 1.9 km/h 1.9 km/h 92% 1.52 mm WeatherDisplay:10.37 W/m2 -RA
19:15 7.8 °C 6.6 °C 1009.7 hPa NW 1.9 km/h   92% 1.27 mm WeatherDisplay:10.37 W/m2 -RA
19:20 7.8 °C 6.6 °C 1009.7 hPa Calm   3.2 km/h 92% 0.25 mm WeatherDisplay:10.37 W/m2 -RA
19:25 7.7 °C 6.5 °C 1009.7 hPa West 1.6 km/h 8 km/h 92% 0.25 mm WeatherDisplay:10.37 W/m2 -RA
19:30 7.7 °C 6.4 °C 1009.7 hPa Calm   3.2 km/h 92% 0 mm WeatherDisplay:10.37 W/m2 -RA
19:35 7.6 °C 6.3 °C 1009.7 hPa West 1.9 km/h 1.9 km/h 92% 2.03 mm WeatherDisplay:10.37 W/m2 -RA
19:40 7.4 °C 6.2 °C 1010 hPa West 1.6 km/h 1.6 km/h 92% 2.54 mm WeatherDisplay:10.37 W/m2 -RA
19:45 7.3 °C 6.1 °C 1009.7 hPa West 1.9 km/h 1.9 km/h 92% 2.79 mm WeatherDisplay:10.37 W/m2 -RA
19:50 7.2 °C 5.9 °C 1009.7 hPa Calm     92% 2.79 mm WeatherDisplay:10.37 W/m2 -RA
19:55 7.1 °C 5.9 °C 1010.4 hPa Calm     92% 2.54 mm WeatherDisplay:10.37 W/m2 -RA
20:00 7.1 °C 5.9 °C 1010.4 hPa WNW 3.7 km/h 3.7 km/h 92% 2.54 mm WeatherDisplay:10.37 W/m2 -RA
20:05 6.9 °C 5.7 °C 1010 hPa West 1.9 km/h 1.9 km/h 92% 2.29 mm WeatherDisplay:10.37 W/m2 -RA
20:10 6.9 °C 5.7 °C 1010 hPa WSW 3.7 km/h 3.7 km/h 92% 2.03 mm WeatherDisplay:10.37 W/m2 -RA
20:15 6.9 °C 5.7 °C 1010 hPa NE 1.9 km/h 1.9 km/h 92% 2.03 mm WeatherDisplay:10.37 W/m2 -RA
20:21 6.8 °C 5.6 °C 1010 hPa South 3.7 km/h 3.7 km/h 92% 1.78 mm WeatherDisplay:10.37 W/m2 -RA
20:26 6.7 °C 5.5 °C 1010 hPa WSW 5.6 km/h 5.6 km/h 92% 1.78 mm WeatherDisplay:10.37 W/m2 -RA
20:31 6.7 °C 5.4 °C 1010 hPa SW 3.7 km/h 3.7 km/h 92% 1.27 mm WeatherDisplay:10.37 W/m2 -RA
20:36 6.6 °C 5.4 °C 1010.4 hPa West 1.9 km/h 1.9 km/h 92% 1.02 mm WeatherDisplay:10.37 W/m2 -RA
20:41 6.6 °C 5.3 °C 1010.4 hPa WSW 3.7 km/h 3.7 km/h 92% 0.76 mm WeatherDisplay:10.37 W/m2 -RA
20:46 6.6 °C 5.4 °C 1010.7 hPa South 1.6 km/h 1.6 km/h 92% 0.51 mm WeatherDisplay:10.37 W/m2 -RA
20:51 6.6 °C 5.3 °C 1010.4 hPa SW 3.2 km/h 3.2 km/h 92% 0.25 mm WeatherDisplay:10.37 W/m2 OVC
20:56 6.6 °C 5.3 °C 1010.4 hPa SSE 1.9 km/h 1.9 km/h 92% 0.25 mm WeatherDisplay:10.37 W/m2 OVC
21:01 6.6 °C 5.3 °C 1010.4 hPa ESE 5.6 km/h 5.6 km/h 92% 0 mm WeatherDisplay:10.37 W/m2 OVC
21:06 6.5 °C 5.3 °C 1010.7 hPa NW 5.6 km/h 5.6 km/h 92% 0 mm WeatherDisplay:10.37 W/m2 OVC
21:12 6.4 °C 5.2 °C 1010.7 hPa West 1.6 km/h 1.6 km/h 92% 0 mm WeatherDisplay:10.37 W/m2 OVC
21:17 6.3 °C 5.1 °C 1010.4 hPa NNW 1.9 km/h 1.9 km/h 92% 0 mm WeatherDisplay:10.37 W/m2 OVC
21:22 6.2 °C 5 °C 1010.4 hPa West 1.9 km/h   92% 0 mm WeatherDisplay:10.37 W/m2 OVC
21:27 6.2 °C 4.9 °C 1010.4 hPa East 7.4 km/h 7.4 km/h 92% 0 mm WeatherDisplay:10.37 W/m2 OVC
21:32 6.1 °C 4.8 °C 1010.4 hPa West 1.9 km/h 1.9 km/h 92% 0 mm WeatherDisplay:10.37 W/m2 OVC
21:37 6 °C 4.8 °C 1010.7 hPa SW 1.9 km/h 1.9 km/h 92% 0 mm WeatherDisplay:10.37 W/m2 OVC
21:42 5.9 °C 4.7 °C 1010.4 hPa East 1.9 km/h 1.9 km/h 92% 0 mm WeatherDisplay:10.37 W/m2 OVC
21:47 5.8 °C 4.4 °C 1010.4 hPa West 3.7 km/h 3.7 km/h 91% 0 mm WeatherDisplay:10.37 W/m2 OVC
21:52 5.7 °C 4.4 °C 1010.7 hPa Calm     91% 0 mm WeatherDisplay:10.37 W/m2 OVC
21:58 5.7 °C 4.4 °C 1010.7 hPa SE 1.9 km/h 1.9 km/h 91% 0 mm WeatherDisplay:10.37 W/m2 OVC
22:08 5.6 °C 4.3 °C 1010.7 hPa WNW 3.7 km/h 3.7 km/h 91% 0 mm WeatherDisplay:10.37 W/m2 OVC
22:13 5.6 °C 4.2 °C 1010.4 hPa WSW 1.9 km/h 1.9 km/h 91% 0 mm WeatherDisplay:10.37 W/m2 OVC
22:18 5.5 °C 4.2 °C 1010.4 hPa West 5.6 km/h 5.6 km/h 91% 0 mm WeatherDisplay:10.37 W/m2 OVC
22:23 5.5 °C 4.2 °C 1010.4 hPa West 1.9 km/h 1.9 km/h 91% 0 mm WeatherDisplay:10.37 W/m2 OVC
22:28 5.4 °C 4.1 °C 1010.4 hPa East 3.7 km/h 3.7 km/h 91% 0 mm WeatherDisplay:10.37 W/m2 OVC
22:33 5.4 °C 4.1 °C 1010.4 hPa Calm   1.1 km/h 91% 0 mm WeatherDisplay:10.37 W/m2 OVC
22:39 5.3 °C 4 °C 1010.4 hPa SW 1.6 km/h 1.6 km/h 91% 0 mm WeatherDisplay:10.37 W/m2 OVC
22:44 5.3 °C 3.9 °C 1010.4 hPa WNW 3.2 km/h 3.2 km/h 91% 0 mm WeatherDisplay:10.37 W/m2 OVC
22:49 5.3 °C 3.9 °C 1010.4 hPa West 1.9 km/h 1.9 km/h 91% 0 mm WeatherDisplay:10.37 W/m2 OVC
22:54 5.3 °C 3.9 °C 1010.4 hPa SW 1.9 km/h 1.9 km/h 91% 0 mm WeatherDisplay:10.37 W/m2 OVC
22:59 5.2 °C 3.7 °C 1010.4 hPa WNW 5.6 km/h 5.6 km/h 90% 0 mm WeatherDisplay:10.37 W/m2 OVC
23:04 5.2 °C 3.7 °C 1010.4 hPa West 7.4 km/h 7.4 km/h 90% 0 mm WeatherDisplay:10.37 W/m2 OVC
23:09 5.1 °C 3.6 °C 1010.4 hPa WNW 1.9 km/h 1.9 km/h 90% 0 mm WeatherDisplay:10.37 W/m2 OVC
23:16 5.1 °C 3.6 °C 1010.4 hPa WNW 7.4 km/h   90% 0 mm WeatherDisplay:10.37 W/m2 OVC
23:21 5.1 °C 3.6 °C 1010.4 hPa Calm     90% 0 mm WeatherDisplay:10.37 W/m2 OVC
23:26 5.1 °C 3.6 °C 1010.4 hPa West 3.7 km/h 3.7 km/h 90% 0 mm WeatherDisplay:10.37 W/m2 OVC
23:27 5.1 °C 3.6 °C 1010.4 hPa WNW 3.7 km/h 3.7 km/h 90% 0 mm WeatherDisplay:10.37 W/m2 OVC
23:28 5.1 °C 3.6 °C 1010.4 hPa WNW 1.6 km/h 1.6 km/h 90% 0 mm WeatherDisplay:10.37 W/m2 OVC
23:29 5.1 °C 3.6 °C 1010.4 hPa WNW 1.9 km/h   90% 0 mm WeatherDisplay:10.37 W/m2 OVC
23:35 5.1 °C 3.4 °C 1010.7 hPa WSW 5.6 km/h 5.6 km/h 89% 0 mm WeatherDisplay:10.37 W/m2 OVC
23:42 5.1 °C 3.4 °C 1010.7 hPa WNW 3.2 km/h 3.2 km/h 89% 0 mm WeatherDisplay:10.37 W/m2 OVC
23:47 5.1 °C 3.4 °C 1010.7 hPa WNW 5.6 km/h 5.6 km/h 89% 0 mm WeatherDisplay:10.37 W/m2 OVC
23:52 5 °C 3.3 °C 1010.7 hPa West 1.9 km/h 1.9 km/h 89% 0 mm WeatherDisplay:10.37 W/m2 OVC
23:57 5 °C 3.3 °C 1010.4 hPa NE 3.7 km/h 3.7 km/h 89% 0 mm WeatherDisplay:10.37 W/m2 OVC
Piedmont Bend
Compliments of Weather Underground - 4 mb